sensor_id;sensor_type;location;lat;lon;timestamp;pressure;altitude;pressure_sealevel;temperature
1532;BMP280;759;53.170;8.210;2022-11-15T00:02:24;100045.28;;;7.52
1532;BMP280;759;53.170;8.210;2022-11-15T00:04:49;100038.84;;;7.46
1532;BMP280;759;53.170;8.210;2022-11-15T00:07:14;100042.66;;;7.48
1532;BMP280;759;53.170;8.210;2022-11-15T00:09:39;100039.22;;;7.48
1532;BMP280;759;53.170;8.210;2022-11-15T00:12:04;100035.03;;;7.43
1532;BMP280;759;53.170;8.210;2022-11-15T00:14:30;100033.16;;;7.37
1532;BMP280;759;53.170;8.210;2022-11-15T00:16:55;100034.66;;;7.38
1532;BMP280;759;53.170;8.210;2022-11-15T00:19:20;100038.84;;;7.39
1532;BMP280;759;53.170;8.210;2022-11-15T00:21:45;100034.66;;;7.27
1532;BMP280;759;53.170;8.210;2022-11-15T00:24:11;100033.50;;;7.17
1532;BMP280;759;53.170;8.210;2022-11-15T00:26:36;100045.28;;;7.23
1532;BMP280;759;53.170;8.210;2022-11-15T00:29:01;100038.44;;;7.22
1532;BMP280;759;53.170;8.210;2022-11-15T00:31:26;100025.50;;;7.17
1532;BMP280;759;53.170;8.210;2022-11-15T00:33:51;100027.78;;;7.19
1532;BMP280;759;53.170;8.210;2022-11-15T00:36:17;100035.78;;;7.15
1532;BMP280;759;53.170;8.210;2022-11-15T00:38:42;100038.03;;;7.13
1532;BMP280;759;53.170;8.210;2022-11-15T00:41:07;100040.31;;;7.11
1532;BMP280;759;53.170;8.210;2022-11-15T00:43:33;100038.41;;;7.08
1532;BMP280;759;53.170;8.210;2022-11-15T00:45:59;100041.84;;;7.12
1532;BMP280;759;53.170;8.210;2022-11-15T00:48:24;100038.03;;;7.06
1532;BMP280;759;53.170;8.210;2022-11-15T00:50:49;100035.38;;;7.06
1532;BMP280;759;53.170;8.210;2022-11-15T00:53:15;100037.66;;;7.11
1532;BMP280;759;53.170;8.210;2022-11-15T00:55:41;100038.03;;;7.06
1532;BMP280;759;53.170;8.210;2022-11-15T00:58:06;100031.56;;;7.07
1532;BMP280;759;53.170;8.210;2022-11-15T01:00:31;100033.09;;;7.01
1532;BMP280;759;53.170;8.210;2022-11-15T01:02:56;100032.31;;;6.97
1532;BMP280;759;53.170;8.210;2022-11-15T01:05:21;100032.25;;;6.82
1532;BMP280;759;53.170;8.210;2022-11-15T01:07:47;100042.91;;;6.82
1532;BMP280;759;53.170;8.210;2022-11-15T01:10:15;100041.41;;;6.89
1532;BMP280;759;53.170;8.210;2022-11-15T01:12:41;100038.72;;;6.81
1532;BMP280;759;53.170;8.210;2022-11-15T01:15:06;100037.94;;;6.77
1532;BMP280;759;53.170;8.210;2022-11-15T01:17:31;100032.97;;;6.69
1532;BMP280;759;53.170;8.210;2022-11-15T01:19:56;100032.63;;;6.77
1532;BMP280;759;53.170;8.210;2022-11-15T01:22:22;100025.44;;;6.74
1532;BMP280;759;53.170;8.210;2022-11-15T01:24:48;100021.97;;;6.70
1532;BMP280;759;53.170;8.210;2022-11-15T01:27:14;100028.44;;;6.73
1532;BMP280;759;53.170;8.210;2022-11-15T01:29:39;100009.44;;;6.67
1532;BMP280;759;53.170;8.210;2022-11-15T01:32:04;100018.56;;;6.66
1532;BMP280;759;53.170;8.210;2022-11-15T01:34:29;100012.88;;;6.64
1532;BMP280;759;53.170;8.210;2022-11-15T01:36:54;100004.13;;;6.63
1532;BMP280;759;53.170;8.210;2022-11-15T01:39:19;99994.25;;;6.60
1532;BMP280;759;53.170;8.210;2022-11-15T01:41:45;99994.94;;;6.54
1532;BMP280;759;53.170;8.210;2022-11-15T01:46:53;99988.13;;;6.49
1532;BMP280;759;53.170;8.210;2022-11-15T01:49:19;99987.34;;;6.49
1532;BMP280;759;53.170;8.210;2022-11-15T01:51:45;99979.78;;;6.47
1532;BMP280;759;53.170;8.210;2022-11-15T01:54:12;99985.06;;;6.43
1532;BMP280;759;53.170;8.210;2022-11-15T01:56:40;99975.94;;;6.44
1532;BMP280;759;53.170;8.210;2022-11-15T01:59:07;99972.13;;;6.42
1532;BMP280;759;53.170;8.210;2022-11-15T02:01:33;99970.59;;;6.37
1532;BMP280;759;53.170;8.210;2022-11-15T02:04:04;99976.69;;;6.38
1532;BMP280;759;53.170;8.210;2022-11-15T02:06:30;99973.63;;;6.32
1532;BMP280;759;53.170;8.210;2022-11-15T02:08:56;99967.97;;;6.34
1532;BMP280;759;53.170;8.210;2022-11-15T02:11:21;99974.44;;;6.43
1532;BMP280;759;53.170;8.210;2022-11-15T02:13:47;99963.06;;;6.54
1532;BMP280;759;53.170;8.210;2022-11-15T02:16:20;99952.09;;;6.59
1532;BMP280;759;53.170;8.210;2022-11-15T02:18:52;99951.34;;;6.69
1532;BMP280;759;53.170;8.210;2022-11-15T02:24:11;99948.72;;;6.76
1532;BMP280;759;53.170;8.210;2022-11-15T02:29:07;99962.38;;;6.82
1532;BMP280;759;53.170;8.210;2022-11-15T02:36:47;99960.13;;;7.02
1532;BMP280;759;53.170;8.210;2022-11-15T02:39:23;99956.34;;;7.03
1532;BMP280;759;53.170;8.210;2022-11-15T02:41:54;99963.19;;;7.11
1532;BMP280;759;53.170;8.210;2022-11-15T02:44:37;99949.50;;;7.16
1532;BMP280;759;53.170;8.210;2022-11-15T02:47:04;99949.50;;;7.23
1532;BMP280;759;53.170;8.210;2022-11-15T02:49:44;99945.69;;;7.24
1532;BMP280;759;53.170;8.210;2022-11-15T02:52:14;99947.22;;;7.33
1532;BMP280;759;53.170;8.210;2022-11-15T02:54:39;99949.13;;;7.36
1532;BMP280;759;53.170;8.210;2022-11-15T02:57:05;99950.28;;;7.35
1532;BMP280;759;53.170;8.210;2022-11-15T03:04:30;99948.72;;;7.41
1532;BMP280;759;53.170;8.210;2022-11-15T03:07:13;99956.34;;;7.42
1532;BMP280;759;53.170;8.210;2022-11-15T03:12:11;99949.13;;;7.50
1532;BMP280;759;53.170;8.210;2022-11-15T03:14:40;99957.09;;;7.54
1532;BMP280;759;53.170;8.210;2022-11-15T03:20:15;99950.59;;;7.58
1532;BMP280;759;53.170;8.210;2022-11-15T03:22:42;99949.50;;;7.63
1532;BMP280;759;53.170;8.210;2022-11-15T03:25:09;99957.06;;;7.68
1532;BMP280;759;53.170;8.210;2022-11-15T03:27:37;99949.44;;;7.74
1532;BMP280;759;53.170;8.210;2022-11-15T03:30:04;99946.03;;;7.73
1532;BMP280;759;53.170;8.210;2022-11-15T03:32:31;99938.78;;;7.81
1532;BMP280;759;53.170;8.210;2022-11-15T03:35:05;99934.97;;;7.82
1532;BMP280;759;53.170;8.210;2022-11-15T03:39:59;99943.31;;;7.87
1532;BMP280;759;53.170;8.210;2022-11-15T03:42:30;99932.25;;;7.93
1532;BMP280;759;53.170;8.210;2022-11-15T03:45:10;99932.66;;;7.91
1532;BMP280;759;53.170;8.210;2022-11-15T03:50:13;99930.34;;;7.97
1532;BMP280;759;53.170;8.210;2022-11-15T03:52:39;99931.09;;;7.97
1532;BMP280;759;53.170;8.210;2022-11-15T03:55:06;99934.53;;;8.01
1532;BMP280;759;53.170;8.210;2022-11-15T03:57:32;99929.94;;;8.05
1532;BMP280;759;53.170;8.210;2022-11-15T03:59:57;99931.84;;;8.05
1532;BMP280;759;53.170;8.210;2022-11-15T04:02:22;99927.25;;;8.09
1532;BMP280;759;53.170;8.210;2022-11-15T04:04:47;99932.56;;;8.12
1532;BMP280;759;53.170;8.210;2022-11-15T04:07:13;99923.41;;;8.13
1532;BMP280;759;53.170;8.210;2022-11-15T04:09:38;99928.00;;;8.17
1532;BMP280;759;53.170;8.210;2022-11-15T04:12:23;99921.91;;;8.16
1532;BMP280;759;53.170;8.210;2022-11-15T04:15:05;99928.72;;;8.21
1532;BMP280;759;53.170;8.210;2022-11-15T04:17:34;99930.25;;;8.22
1532;BMP280;759;53.170;8.210;2022-11-15T04:19:59;99926.44;;;8.23
1532;BMP280;759;53.170;8.210;2022-11-15T04:22:43;99936.28;;;8.29
1532;BMP280;759;53.170;8.210;2022-11-15T04:25:27;99934.38;;;8.30
1532;BMP280;759;53.170;8.210;2022-11-15T04:27:53;99929.44;;;8.32
1532;BMP280;759;53.170;8.210;2022-11-15T04:30:18;99928.25;;;8.37
1532;BMP280;759;53.170;8.210;2022-11-15T04:32:43;99941.22;;;8.38
1532;BMP280;759;53.170;8.210;2022-11-15T04:35:09;99934.75;;;8.39
1532;BMP280;759;53.170;8.210;2022-11-15T04:37:34;99940.06;;;8.39
1532;BMP280;759;53.170;8.210;2022-11-15T04:39:59;99936.97;;;8.44
1532;BMP280;759;53.170;8.210;2022-11-15T04:42:25;99943.44;;;8.50
1532;BMP280;759;53.170;8.210;2022-11-15T04:44:50;99934.31;;;8.44
1532;BMP280;759;53.170;8.210;2022-11-15T04:47:16;99941.91;;;8.49
1532;BMP280;759;53.170;8.210;2022-11-15T04:49:41;99939.25;;;8.49
1532;BMP280;759;53.170;8.210;2022-11-15T04:52:06;99946.81;;;8.54
1532;BMP280;759;53.170;8.210;2022-11-15T04:54:31;99943.00;;;8.52
1532;BMP280;759;53.170;8.210;2022-11-15T04:56:56;99946.03;;;8.58
1532;BMP280;759;53.170;8.210;2022-11-15T04:59:22;99943.78;;;8.60
1532;BMP280;759;53.170;8.210;2022-11-15T05:01:47;99935.31;;;8.65
1532;BMP280;759;53.170;8.210;2022-11-15T05:04:12;99944.47;;;8.67
1532;BMP280;759;53.170;8.210;2022-11-15T05:06:44;99936.47;;;8.64
1532;BMP280;759;53.170;8.210;2022-11-15T05:09:09;99936.81;;;8.73
1532;BMP280;759;53.170;8.210;2022-11-15T05:11:34;99933.72;;;8.74
1532;BMP280;759;53.170;8.210;2022-11-15T05:14:00;99931.00;;;8.82
1532;BMP280;759;53.170;8.210;2022-11-15T05:16:25;99939.75;;;8.86
1532;BMP280;759;53.170;8.210;2022-11-15T05:18:51;99934.41;;;8.89
1532;BMP280;759;53.170;8.210;2022-11-15T05:21:16;99938.16;;;8.95
1532;BMP280;759;53.170;8.210;2022-11-15T05:23:42;99931.69;;;8.96
1532;BMP280;759;53.170;8.210;2022-11-15T05:26:07;99928.94;;;9.04
1532;BMP280;759;53.170;8.210;2022-11-15T05:28:33;99922.84;;;9.03
1532;BMP280;759;53.170;8.210;2022-11-15T05:31:02;99922.06;;;9.06
1532;BMP280;759;53.170;8.210;2022-11-15T05:33:27;99922.03;;;9.10
1532;BMP280;759;53.170;8.210;2022-11-15T05:38:43;99925.06;;;9.12
1532;BMP280;759;53.170;8.210;2022-11-15T05:41:09;99928.09;;;9.14
1532;BMP280;759;53.170;8.210;2022-11-15T05:43:35;99922.38;;;9.15
1532;BMP280;759;53.170;8.210;2022-11-15T05:46:01;99925.03;;;9.15
1532;BMP280;759;53.170;8.210;2022-11-15T05:48:27;99922.00;;;9.13
1532;BMP280;759;53.170;8.210;2022-11-15T05:50:52;99925.03;;;9.19
1532;BMP280;759;53.170;8.210;2022-11-15T05:53:18;99928.41;;;9.23
1532;BMP280;759;53.170;8.210;2022-11-15T05:55:44;99926.09;;;9.25
1532;BMP280;759;53.170;8.210;2022-11-15T05:58:10;99928.00;;;9.28
1532;BMP280;759;53.170;8.210;2022-11-15T06:00:35;99928.78;;;9.22
1532;BMP280;759;53.170;8.210;2022-11-15T06:03:01;99936.34;;;9.30
1532;BMP280;759;53.170;8.210;2022-11-15T06:05:26;99934.03;;;9.32
1532;BMP280;759;53.170;8.210;2022-11-15T06:07:52;99937.44;;;9.36
1532;BMP280;759;53.170;8.210;2022-11-15T06:10:17;99932.50;;;9.31
1532;BMP280;759;53.170;8.210;2022-11-15T06:12:43;99937.06;;;9.34
1532;BMP280;759;53.170;8.210;2022-11-15T06:15:08;99938.56;;;9.35
1532;BMP280;759;53.170;8.210;2022-11-15T06:17:33;99933.22;;;9.35
1532;BMP280;759;53.170;8.210;2022-11-15T06:19:58;99932.47;;;9.35
1532;BMP280;759;53.170;8.210;2022-11-15T06:22:24;99936.19;;;9.45
1532;BMP280;759;53.170;8.210;2022-11-15T06:24:49;99940.00;;;9.47
1532;BMP280;759;53.170;8.210;2022-11-15T06:27:14;99937.25;;;9.51
1532;BMP280;759;53.170;8.210;2022-11-15T06:29:39;99945.25;;;9.54
1532;BMP280;759;53.170;8.210;2022-11-15T06:32:04;99937.53;;;9.60
1532;BMP280;759;53.170;8.210;2022-11-15T06:34:30;99930.69;;;9.59
1532;BMP280;759;53.170;8.210;2022-11-15T06:36:55;99934.81;;;9.67
1532;BMP280;759;53.170;8.210;2022-11-15T06:39:20;99943.22;;;9.66
1532;BMP280;759;53.170;8.210;2022-11-15T06:41:46;99938.22;;;9.68
1532;BMP280;759;53.170;8.210;2022-11-15T06:44:11;99943.94;;;9.70
1532;BMP280;759;53.170;8.210;2022-11-15T06:46:36;99941.94;;;9.77
1532;BMP280;759;53.170;8.210;2022-11-15T06:49:02;99943.50;;;9.75
1532;BMP280;759;53.170;8.210;2022-11-15T06:51:27;99950.78;;;9.74
1532;BMP280;759;53.170;8.210;2022-11-15T06:53:52;99949.56;;;9.79
1532;BMP280;759;53.170;8.210;2022-11-15T06:56:17;99952.28;;;9.75
1532;BMP280;759;53.170;8.210;2022-11-15T06:58:43;99952.59;;;9.81
1532;BMP280;759;53.170;8.210;2022-11-15T07:01:10;99953.75;;;9.80
1532;BMP280;759;53.170;8.210;2022-11-15T07:03:38;99961.75;;;9.84
1532;BMP280;759;53.170;8.210;2022-11-15T07:06:05;99963.94;;;9.89
1532;BMP280;759;53.170;8.210;2022-11-15T07:08:32;99945.44;;;9.74
1532;BMP280;759;53.170;8.210;2022-11-15T07:10:58;99970.34;;;9.98
1532;BMP280;759;53.170;8.210;2022-11-15T07:13:25;99969.53;;;10.01
1532;BMP280;759;53.170;8.210;2022-11-15T07:15:50;99965.38;;;9.97
1532;BMP280;759;53.170;8.210;2022-11-15T07:18:16;99972.16;;;10.05
1532;BMP280;759;53.170;8.210;2022-11-15T07:20:41;99978.22;;;10.09
1532;BMP280;759;53.170;8.210;2022-11-15T07:23:06;99978.66;;;10.04
1532;BMP280;759;53.170;8.210;2022-11-15T07:28:33;99973.53;;;10.17
1532;BMP280;759;53.170;8.210;2022-11-15T07:31:01;99967.00;;;10.21
1532;BMP280;759;53.170;8.210;2022-11-15T07:33:26;99965.72;;;10.30
1532;BMP280;759;53.170;8.210;2022-11-15T07:35:53;99966.81;;;10.36
1532;BMP280;759;53.170;8.210;2022-11-15T07:38:20;99962.63;;;10.35
1532;BMP280;759;53.170;8.210;2022-11-15T07:40:55;99967.50;;;10.40
1532;BMP280;759;53.170;8.210;2022-11-15T07:43:41;99968.66;;;10.39
1532;BMP280;759;53.170;8.210;2022-11-15T07:46:09;99975.88;;;10.42
1532;BMP280;759;53.170;8.210;2022-11-15T07:51:55;99965.66;;;10.37
1532;BMP280;759;53.170;8.210;2022-11-15T07:54:28;99965.72;;;10.30
1532;BMP280;759;53.170;8.210;2022-11-15T07:57:04;99967.97;;;10.35
1532;BMP280;759;53.170;8.210;2022-11-15T08:02:23;99964.94;;;10.33
1532;BMP280;759;53.170;8.210;2022-11-15T08:04:49;99964.94;;;10.33
1532;BMP280;759;53.170;8.210;2022-11-15T08:07:14;99968.72;;;10.35
1532;BMP280;759;53.170;8.210;2022-11-15T08:09:39;99966.34;;;10.41
1532;BMP280;759;53.170;8.210;2022-11-15T08:12:05;99961.72;;;10.45
1532;BMP280;759;53.170;8.210;2022-11-15T08:14:30;99948.78;;;10.40
1532;BMP280;759;53.170;8.210;2022-11-15T08:16:55;99953.38;;;10.39
1532;BMP280;759;53.170;8.210;2022-11-15T08:19:21;99954.88;;;10.44
1532;BMP280;759;53.170;8.210;2022-11-15T08:21:46;99958.94;;;10.52
1532;BMP280;759;53.170;8.210;2022-11-15T08:24:11;99961.94;;;10.54
1532;BMP280;759;53.170;8.210;2022-11-15T08:26:37;99960.78;;;10.55
1532;BMP280;759;53.170;8.210;2022-11-15T08:29:02;99965.69;;;10.60
1532;BMP280;759;53.170;8.210;2022-11-15T08:31:27;99964.41;;;10.68
1532;BMP280;759;53.170;8.210;2022-11-15T08:33:52;99968.53;;;10.77
1532;BMP280;759;53.170;8.210;2022-11-15T08:39:20;99980.63;;;10.85
1532;BMP280;759;53.170;8.210;2022-11-15T08:41:46;99973.25;;;10.89
1532;BMP280;759;53.170;8.210;2022-11-15T08:44:11;99975.09;;;10.96
1532;BMP280;759;53.170;8.210;2022-11-15T08:46:36;99977.84;;;10.92
1532;BMP280;759;53.170;8.210;2022-11-15T08:49:02;99983.53;;;10.94
1532;BMP280;759;53.170;8.210;2022-11-15T08:51:27;99982.00;;;10.93
1532;BMP280;759;53.170;8.210;2022-11-15T08:53:52;99986.22;;;10.94
1532;BMP280;759;53.170;8.210;2022-11-15T08:56:17;99981.91;;;11.00
1532;BMP280;759;53.170;8.210;2022-11-15T08:58:42;99984.56;;;11.00
1532;BMP280;759;53.170;8.210;2022-11-15T09:01:14;99990.75;;;10.97
1532;BMP280;759;53.170;8.210;2022-11-15T09:03:40;99987.53;;;11.06
1532;BMP280;759;53.170;8.210;2022-11-15T09:06:05;99990.59;;;11.04
1532;BMP280;759;53.170;8.210;2022-11-15T09:08:30;99986.09;;;11.01
1532;BMP280;759;53.170;8.210;2022-11-15T09:10:56;99984.94;;;11.02
1532;BMP280;759;53.170;8.210;2022-11-15T09:13:21;99979.97;;;11.01
1532;BMP280;759;53.170;8.210;2022-11-15T09:15:47;99979.22;;;11.00
1532;BMP280;759;53.170;8.210;2022-11-15T09:18:12;99976.44;;;11.07
1532;BMP280;759;53.170;8.210;2022-11-15T09:20:37;99969.91;;;11.08
1532;BMP280;759;53.170;8.210;2022-11-15T09:23:03;99978.16;;;11.18
1532;BMP280;759;53.170;8.210;2022-11-15T09:25:28;99979.69;;;11.19
1532;BMP280;759;53.170;8.210;2022-11-15T09:27:53;99973.44;;;11.25
1532;BMP280;759;53.170;8.210;2022-11-15T09:30:18;99973.88;;;11.24
1532;BMP280;759;53.170;8.210;2022-11-15T09:32:44;99978.28;;;11.34
1532;BMP280;759;53.170;8.210;2022-11-15T09:35:09;99970.25;;;11.34
1532;BMP280;759;53.170;8.210;2022-11-15T09:37:34;99974.69;;;11.41
1532;BMP280;759;53.170;8.210;2022-11-15T09:39:59;99971.13;;;11.47
1532;BMP280;759;53.170;8.210;2022-11-15T09:48:15;99965.00;;;11.67
1532;BMP280;759;53.170;8.210;2022-11-15T09:50:31;99962.53;;;11.76
1532;BMP280;759;53.170;8.210;2022-11-15T09:52:56;99966.41;;;11.75
1532;BMP280;759;53.170;8.210;2022-11-15T09:55:23;99979.44;;;11.73
1532;BMP280;759;53.170;8.210;2022-11-15T09:57:53;99974.06;;;11.73
1532;BMP280;759;53.170;8.210;2022-11-15T10:00:31;99975.16;;;11.79
1532;BMP280;759;53.170;8.210;2022-11-15T10:05:23;99966.25;;;11.82
1532;BMP280;759;53.170;8.210;2022-11-15T10:07:53;99949.22;;;11.92
1532;BMP280;759;53.170;8.210;2022-11-15T10:13:01;99956.44;;;12.12
1532;BMP280;759;53.170;8.210;2022-11-15T10:15:26;99948.25;;;12.19
1532;BMP280;759;53.170;8.210;2022-11-15T10:18:02;99957.66;;;12.27
1532;BMP280;759;53.170;8.210;2022-11-15T10:20:41;99946.75;;;12.34
1532;BMP280;759;53.170;8.210;2022-11-15T10:23:10;99941.91;;;12.46
1532;BMP280;759;53.170;8.210;2022-11-15T10:25:35;99940.72;;;12.63
1532;BMP280;759;53.170;8.210;2022-11-15T10:28:26;99949.03;;;12.69
1532;BMP280;759;53.170;8.210;2022-11-15T10:30:51;99942.22;;;12.64
1532;BMP280;759;53.170;8.210;2022-11-15T10:41:16;99933.97;;;12.88
1532;BMP280;759;53.170;8.210;2022-11-15T10:43:42;99936.66;;;12.88
1532;BMP280;759;53.170;8.210;2022-11-15T10:46:20;99926.25;;;12.90
1532;BMP280;759;53.170;8.210;2022-11-15T10:48:45;99922.94;;;12.85
1532;BMP280;759;53.170;8.210;2022-11-15T10:51:20;99923.75;;;12.82
1532;BMP280;759;53.170;8.210;2022-11-15T10:53:47;99916.59;;;12.79
1532;BMP280;759;53.170;8.210;2022-11-15T10:56:13;99908.84;;;12.81
1532;BMP280;759;53.170;8.210;2022-11-15T10:58:44;99897.44;;;12.77
1532;BMP280;759;53.170;8.210;2022-11-15T11:03:41;99898.09;;;12.81
1532;BMP280;759;53.170;8.210;2022-11-15T11:06:08;99899.25;;;12.80
1532;BMP280;759;53.170;8.210;2022-11-15T11:08:34;99894.06;;;12.90
1532;BMP280;759;53.170;8.210;2022-11-15T11:11:00;99884.63;;;12.98
1532;BMP280;759;53.170;8.210;2022-11-15T11:18:27;99887.75;;;13.25
1532;BMP280;759;53.170;8.210;2022-11-15T11:21:00;99890.75;;;13.27
1532;BMP280;759;53.170;8.210;2022-11-15T11:23:52;99882.19;;;13.33
1532;BMP280;759;53.170;8.210;2022-11-15T11:36:21;99886.81;;;13.45
1532;BMP280;759;53.170;8.210;2022-11-15T11:44:11;99876.66;;;13.36
1532;BMP280;759;53.170;8.210;2022-11-15T11:51:38;99875.53;;;13.50
1532;BMP280;759;53.170;8.210;2022-11-15T11:54:14;99877.56;;;13.59
1532;BMP280;759;53.170;8.210;2022-11-15T11:56:43;99872.41;;;13.77
1532;BMP280;759;53.170;8.210;2022-11-15T12:01:41;99876.84;;;13.84
1532;BMP280;759;53.170;8.210;2022-11-15T12:06:55;99870.47;;;13.90
1532;BMP280;759;53.170;8.210;2022-11-15T12:12:11;99858.84;;;13.93
1532;BMP280;759;53.170;8.210;2022-11-15T12:14:45;99853.28;;;13.88
1532;BMP280;759;53.170;8.210;2022-11-15T12:17:12;99850.34;;;13.95
1532;BMP280;759;53.170;8.210;2022-11-15T12:19:37;99840.25;;;13.99
1532;BMP280;759;53.170;8.210;2022-11-15T12:22:08;99844.34;;;14.04
1532;BMP280;759;53.170;8.210;2022-11-15T12:27:03;99841.63;;;14.16
1532;BMP280;759;53.170;8.210;2022-11-15T12:29:41;99844.00;;;14.14
1532;BMP280;759;53.170;8.210;2022-11-15T12:32:18;99835.59;;;14.12
1532;BMP280;759;53.170;8.210;2022-11-15T12:34:45;99838.34;;;14.22
1532;BMP280;759;53.170;8.210;2022-11-15T12:45:22;99836.22;;;14.51
1532;BMP280;759;53.170;8.210;2022-11-15T12:47:48;99834.22;;;14.64
1532;BMP280;759;53.170;8.210;2022-11-15T12:50:13;99829.69;;;14.61
1532;BMP280;759;53.170;8.210;2022-11-15T12:52:48;99821.69;;;14.49
1532;BMP280;759;53.170;8.210;2022-11-15T12:55:33;99829.56;;;14.43
1532;BMP280;759;53.170;8.210;2022-11-15T12:58:18;99810.91;;;14.27
1532;BMP280;759;53.170;8.210;2022-11-15T13:00:43;99806.06;;;14.22
1532;BMP280;759;53.170;8.210;2022-11-15T13:03:18;99813.41;;;14.21
1532;BMP280;759;53.170;8.210;2022-11-15T13:08:08;99813.19;;;14.28
1532;BMP280;759;53.170;8.210;2022-11-15T13:10:33;99809.81;;;14.37
1532;BMP280;759;53.170;8.210;2022-11-15T13:13:00;99818.22;;;14.26
1532;BMP280;759;53.170;8.210;2022-11-15T13:17:56;99824.25;;;14.17
1532;BMP280;759;53.170;8.210;2022-11-15T13:20:32;99819.66;;;14.18
1532;BMP280;759;53.170;8.210;2022-11-15T13:30:49;99815.50;;;14.04
1532;BMP280;759;53.170;8.210;2022-11-15T13:33:16;99817.22;;;14.11
1532;BMP280;759;53.170;8.210;2022-11-15T13:35:45;99821.38;;;14.12
1532;BMP280;759;53.170;8.210;2022-11-15T13:38:17;99823.38;;;14.33
1532;BMP280;759;53.170;8.210;2022-11-15T13:40:43;99816.22;;;14.52
1532;BMP280;759;53.170;8.210;2022-11-15T13:43:17;99816.81;;;14.56
1532;BMP280;759;53.170;8.210;2022-11-15T13:45:42;99809.94;;;14.55
1532;BMP280;759;53.170;8.210;2022-11-15T13:48:08;99811.69;;;14.49
1532;BMP280;759;53.170;8.210;2022-11-15T13:50:35;99812.63;;;14.55
1532;BMP280;759;53.170;8.210;2022-11-15T13:53:02;99804.75;;;14.39
1532;BMP280;759;53.170;8.210;2022-11-15T13:55:28;99813.47;;;14.30
1532;BMP280;759;53.170;8.210;2022-11-15T13:57:55;99804.59;;;14.21
1532;BMP280;759;53.170;8.210;2022-11-15T14:00:37;99794.59;;;14.08
1532;BMP280;759;53.170;8.210;2022-11-15T14:03:10;99788.84;;;13.97
1532;BMP280;759;53.170;8.210;2022-11-15T14:05:39;99783.56;;;13.93
1532;BMP280;759;53.170;8.210;2022-11-15T14:10:45;99779.16;;;13.87
1532;BMP280;759;53.170;8.210;2022-11-15T14:15:51;99779.50;;;13.76
1532;BMP280;759;53.170;8.210;2022-11-15T14:18:39;99775.13;;;13.69
1532;BMP280;759;53.170;8.210;2022-11-15T14:21:05;99774.16;;;13.63
1532;BMP280;759;53.170;8.210;2022-11-15T14:23:31;99773.53;;;13.59
1532;BMP280;759;53.170;8.210;2022-11-15T14:25:57;99777.94;;;13.53
1532;BMP280;759;53.170;8.210;2022-11-15T14:30:47;99766.97;;;13.35
1532;BMP280;759;53.170;8.210;2022-11-15T14:33:33;99775.88;;;13.32
1532;BMP280;759;53.170;8.210;2022-11-15T14:36:09;99771.91;;;13.23
1532;BMP280;759;53.170;8.210;2022-11-15T14:38:35;99766.13;;;13.12
1532;BMP280;759;53.170;8.210;2022-11-15T14:41:00;99764.66;;;13.07
1532;BMP280;759;53.170;8.210;2022-11-15T14:43:26;99765.44;;;13.08
1532;BMP280;759;53.170;8.210;2022-11-15T14:45:51;99763.81;;;12.98
1532;BMP280;759;53.170;8.210;2022-11-15T14:48:16;99760.91;;;12.92
1532;BMP280;759;53.170;8.210;2022-11-15T14:50:41;99751.44;;;12.88
1532;BMP280;759;53.170;8.210;2022-11-15T14:53:10;99741.75;;;12.77
1532;BMP280;759;53.170;8.210;2022-11-15T14:55:36;99740.13;;;12.67
1532;BMP280;759;53.170;8.210;2022-11-15T14:58:02;99732.19;;;12.63
1532;BMP280;759;53.170;8.210;2022-11-15T15:00:28;99729.28;;;12.58
1532;BMP280;759;53.170;8.210;2022-11-15T15:02:54;99723.34;;;12.50
1532;BMP280;759;53.170;8.210;2022-11-15T15:05:27;99722.44;;;12.40
1532;BMP280;759;53.170;8.210;2022-11-15T15:07:54;99719.88;;;12.37
1532;BMP280;759;53.170;8.210;2022-11-15T15:10:19;99717.44;;;12.26
1532;BMP280;759;53.170;8.210;2022-11-15T15:12:45;99717.31;;;12.17
1532;BMP280;759;53.170;8.210;2022-11-15T15:15:14;99705.34;;;12.05
1532;BMP280;759;53.170;8.210;2022-11-15T15:17:40;99703.28;;;11.96
1532;BMP280;759;53.170;8.210;2022-11-15T15:20:05;99705.66;;;11.94
1532;BMP280;759;53.170;8.210;2022-11-15T15:22:30;99696.59;;;11.88
1532;BMP280;759;53.170;8.210;2022-11-15T15:24:56;99692.25;;;11.78
1532;BMP280;759;53.170;8.210;2022-11-15T15:27:21;99695.88;;;11.71
1532;BMP280;759;53.170;8.210;2022-11-15T15:29:46;99690.34;;;11.62
1532;BMP280;759;53.170;8.210;2022-11-15T15:32:11;99691.75;;;11.50
1532;BMP280;759;53.170;8.210;2022-11-15T15:34:38;99684.56;;;11.47
1532;BMP280;759;53.170;8.210;2022-11-15T15:37:23;99682.38;;;11.42
1532;BMP280;759;53.170;8.210;2022-11-15T15:39:52;99679.53;;;11.33
1532;BMP280;759;53.170;8.210;2022-11-15T15:42:18;99680.34;;;11.30
1532;BMP280;759;53.170;8.210;2022-11-15T15:47:46;99674.34;;;11.26
1532;BMP280;759;53.170;8.210;2022-11-15T15:50:28;99674.91;;;11.17
1532;BMP280;759;53.170;8.210;2022-11-15T15:52:55;99670.88;;;11.09
1532;BMP280;759;53.170;8.210;2022-11-15T15:55:20;99663.59;;;11.09
1532;BMP280;759;53.170;8.210;2022-11-15T15:57:46;99667.94;;;11.03
1532;BMP280;759;53.170;8.210;2022-11-15T16:00:11;99665.00;;;10.98
1532;BMP280;759;53.170;8.210;2022-11-15T16:02:36;99667.00;;;10.94
1532;BMP280;759;53.170;8.210;2022-11-15T16:05:02;99663.66;;;10.89
1532;BMP280;759;53.170;8.210;2022-11-15T16:07:27;99666.88;;;10.81
1532;BMP280;759;53.170;8.210;2022-11-15T16:09:54;99657.88;;;10.71
1532;BMP280;759;53.170;8.210;2022-11-15T16:12:31;99658.78;;;10.64
1532;BMP280;759;53.170;8.210;2022-11-15T16:14:56;99655.91;;;10.55
1532;BMP280;759;53.170;8.210;2022-11-15T16:17:23;99650.72;;;10.48
1532;BMP280;759;53.170;8.210;2022-11-15T16:19:48;99647.00;;;10.42
1532;BMP280;759;53.170;8.210;2022-11-15T16:22:14;99646.28;;;10.38
1532;BMP280;759;53.170;8.210;2022-11-15T16:24:39;99643.97;;;10.40
1532;BMP280;759;53.170;8.210;2022-11-15T16:27:04;99637.59;;;10.34
1532;BMP280;759;53.170;8.210;2022-11-15T16:29:29;99640.28;;;10.34
1532;BMP280;759;53.170;8.210;2022-11-15T16:31:54;99647.16;;;10.35
1532;BMP280;759;53.170;8.210;2022-11-15T16:34:20;99640.75;;;10.29
1532;BMP280;759;53.170;8.210;2022-11-15T16:36:45;99640.41;;;10.27
1532;BMP280;759;53.170;8.210;2022-11-15T16:39:11;99637.34;;;10.28
1532;BMP280;759;53.170;8.210;2022-11-15T16:41:38;99638.91;;;10.25
1532;BMP280;759;53.170;8.210;2022-11-15T16:44:03;99628.28;;;10.22
1532;BMP280;759;53.170;8.210;2022-11-15T16:46:28;99638.28;;;10.18
1532;BMP280;759;53.170;8.210;2022-11-15T16:48:54;99635.66;;;10.14
1532;BMP280;759;53.170;8.210;2022-11-15T16:51:19;99623.88;;;10.12
1532;BMP280;759;53.170;8.210;2022-11-15T16:53:44;99626.13;;;10.13
1532;BMP280;759;53.170;8.210;2022-11-15T16:56:17;99614.25;;;10.18
1532;BMP280;759;53.170;8.210;2022-11-15T16:58:43;99616.97;;;10.14
1532;BMP280;759;53.170;8.210;2022-11-15T17:01:14;99613.13;;;10.15
1532;BMP280;759;53.170;8.210;2022-11-15T17:03:40;99613.13;;;10.15
1532;BMP280;759;53.170;8.210;2022-11-15T17:06:06;99615.78;;;10.15
1532;BMP280;759;53.170;8.210;2022-11-15T17:08:32;99613.63;;;10.10